createdAt,value
2019-03-20T00:01:19.526Z,3.80
2019-03-20T00:06:23.346Z,3.70
2019-03-20T00:11:27.093Z,3.57
2019-03-20T00:16:30.780Z,3.80
2019-03-20T00:21:34.449Z,3.63
2019-03-20T00:26:38.173Z,3.20
2019-03-20T00:31:41.854Z,3.47
2019-03-20T00:36:45.517Z,3.37
2019-03-20T00:41:49.218Z,3.20
2019-03-20T00:46:52.945Z,3.63
2019-03-20T00:51:56.733Z,3.73
2019-03-20T00:57:00.497Z,3.70
2019-03-20T01:02:04.316Z,4.40
2019-03-20T01:07:10.135Z,3.90
2019-03-20T01:12:13.978Z,3.67
2019-03-20T01:17:17.730Z,4.63
2019-03-20T01:22:21.735Z,4.00
2019-03-20T01:27:25.408Z,4.37
2019-03-20T01:32:29.069Z,4.27
2019-03-20T01:37:32.796Z,4.33
2019-03-20T01:42:36.442Z,4.37
2019-03-20T01:47:40.069Z,5.13
2019-03-20T01:52:43.730Z,4.70
2019-03-20T01:57:47.376Z,3.93
2019-03-20T02:02:51.422Z,4.20
2019-03-20T02:07:55.439Z,4.03
2019-03-20T02:12:59.248Z,4.80
2019-03-20T02:18:02.912Z,4.17
2019-03-20T02:23:06.805Z,4.40
2019-03-20T02:28:10.491Z,4.87
2019-03-20T02:33:14.145Z,4.80
2019-03-20T02:38:17.793Z,5.10
2019-03-20T02:43:21.811Z,5.27
2019-03-20T02:48:25.479Z,5.93
2019-03-20T02:53:29.161Z,6.23
2019-03-20T02:58:32.807Z,5.77
2019-03-20T03:03:36.474Z,4.77
2019-03-20T03:08:40.126Z,5.23
2019-03-20T03:13:43.782Z,5.27
2019-03-20T03:18:47.446Z,5.57
2019-03-20T03:23:51.102Z,5.90
2019-03-20T03:28:54.759Z,6.13
2019-03-20T03:33:58.687Z,6.50
2019-03-20T03:39:04.357Z,6.30
2019-03-20T03:44:08.323Z,6.37
2019-03-20T03:49:11.989Z,6.30
2019-03-20T03:54:15.638Z,6.30
2019-03-20T03:59:19.799Z,5.57
2019-03-20T04:04:23.575Z,6.17
2019-03-20T04:09:27.237Z,5.63
2019-03-20T04:14:30.898Z,5.67
2019-03-20T04:19:34.559Z,5.03
2019-03-20T04:24:38.243Z,5.63
2019-03-20T04:29:41.927Z,6.20
2019-03-20T04:34:46.171Z,5.77
2019-03-20T04:39:49.837Z,6.27
2019-03-20T04:44:53.820Z,8.50
2019-03-20T04:49:57.495Z,6.03
2019-03-20T04:55:01.265Z,5.80
2019-03-20T05:00:06.401Z,5.60
2019-03-20T05:05:10.679Z,6.13
2019-03-20T05:10:14.427Z,8.53
2019-03-20T05:15:18.381Z,7.70
2019-03-20T05:20:22.165Z,13.37
2019-03-20T05:25:25.823Z,7.67
2019-03-20T05:30:29.725Z,6.07
2019-03-20T05:35:33.391Z,5.87
2019-03-20T05:40:37.685Z,5.47
2019-03-20T05:45:41.340Z,5.00
2019-03-20T05:50:45.014Z,6.00
2019-03-20T05:55:48.739Z,5.17
2019-03-20T06:00:52.407Z,5.10
2019-03-20T06:05:56.112Z,5.47
2019-03-20T06:10:59.817Z,5.80
2019-03-20T06:16:03.715Z,5.00
2019-03-20T06:21:07.401Z,5.47
2019-03-20T06:26:11.100Z,5.30
2019-03-20T06:31:14.786Z,5.40
2019-03-20T06:36:18.453Z,4.93
2019-03-20T06:41:22.537Z,5.23
2019-03-20T06:46:26.268Z,5.20
2019-03-20T06:51:29.937Z,5.10
2019-03-20T06:56:33.887Z,4.67
2019-03-20T07:01:37.571Z,5.20
2019-03-20T07:06:51.400Z,4.47
2019-03-20T07:11:55.414Z,3.80
2019-03-20T07:16:59.338Z,4.80
2019-03-20T07:22:02.993Z,4.17
2019-03-20T07:27:06.895Z,4.23
2019-03-20T07:32:10.638Z,4.13
2019-03-20T07:37:14.398Z,3.90
2019-03-20T07:42:18.377Z,4.13
2019-03-20T07:47:22.414Z,4.30
2019-03-20T07:52:26.657Z,4.17
2019-03-20T07:57:30.633Z,3.60
2019-03-20T08:02:34.325Z,4.17
2019-03-20T08:07:37.997Z,3.80
2019-03-20T08:12:41.690Z,3.50
2019-03-20T08:17:45.463Z,3.53
2019-03-20T08:22:49.467Z,3.93
2019-03-20T08:27:53.609Z,3.23
2019-03-20T08:32:57.322Z,3.20
2019-03-20T08:38:01.010Z,3.40
2019-03-20T08:43:05.196Z,3.72
2019-03-20T08:48:09.258Z,3.33
2019-03-20T08:53:13.231Z,3.22
2019-03-20T08:58:17.432Z,3.00
2019-03-20T09:03:21.162Z,3.05
2019-03-20T09:08:29.595Z,2.70
2019-03-20T09:13:30.935Z,2.52
2019-03-20T09:18:34.958Z,2.60
2019-03-20T09:23:40.766Z,2.12
2019-03-20T09:28:44.596Z,2.58
2019-03-20T09:33:48.337Z,2.45
2019-03-20T09:38:55.767Z,1.80
2019-03-20T09:43:59.866Z,1.50
2019-03-20T09:49:03.631Z,2.37
2019-03-20T09:54:07.363Z,2.15
2019-03-20T09:59:11.109Z,2.22
2019-03-20T10:04:14.772Z,2.00
2019-03-20T10:09:18.466Z,2.22
2019-03-20T10:14:22.445Z,2.10
2019-03-20T10:19:26.155Z,2.37
2019-03-20T10:24:29.846Z,1.92
2019-03-20T10:29:33.568Z,2.25
2019-03-20T10:34:39.682Z,2.20
2019-03-20T10:39:42.659Z,2.25
2019-03-20T10:44:46.381Z,2.20
2019-03-20T10:49:50.063Z,2.10
2019-03-20T10:54:54.002Z,2.02
2019-03-20T10:59:57.667Z,2.10
2019-03-20T11:05:01.367Z,1.80
2019-03-20T11:10:06.155Z,2.15
2019-03-20T11:15:11.578Z,1.90
2019-03-20T11:20:16.477Z,2.08
2019-03-20T11:25:20.758Z,1.95
2019-03-20T11:30:24.971Z,2.05
2019-03-20T11:35:28.640Z,2.42
2019-03-20T11:40:33.400Z,2.20
2019-03-20T11:45:37.458Z,2.30
2019-03-20T11:50:41.165Z,2.17
2019-03-20T11:55:48.555Z,2.08
2019-03-20T12:00:52.682Z,1.95
2019-03-20T12:05:56.362Z,2.20
2019-03-20T12:11:00.340Z,1.80
2019-03-20T12:16:04.353Z,1.90
2019-03-20T12:21:08.009Z,2.67
2019-03-20T12:26:11.698Z,1.92
2019-03-20T12:31:15.637Z,2.50
2019-03-20T12:36:19.305Z,2.00
2019-03-20T12:41:24.666Z,2.08
2019-03-20T12:46:40.993Z,2.00
2019-03-20T12:51:33.834Z,2.08
2019-03-20T12:56:37.833Z,2.22
2019-03-20T13:01:41.512Z,1.77
2019-03-20T13:06:45.194Z,2.20
2019-03-20T13:11:48.865Z,2.12
2019-03-20T13:16:52.538Z,2.00
2019-03-20T13:21:56.215Z,2.10
2019-03-20T13:26:59.896Z,1.72
2019-03-20T13:32:03.784Z,2.02
2019-03-20T13:37:07.910Z,2.17
2019-03-20T13:42:11.955Z,2.47
2019-03-20T13:47:15.730Z,1.82
2019-03-20T13:52:19.397Z,2.20
2019-03-20T13:57:23.047Z,1.80
2019-03-20T14:02:26.734Z,2.17
2019-03-20T14:07:30.649Z,2.10
2019-03-20T14:12:34.321Z,2.00
2019-03-20T14:17:38.294Z,2.20
2019-03-20T14:22:41.953Z,2.20
2019-03-20T14:27:45.694Z,1.70
2019-03-20T14:32:49.486Z,1.85
2019-03-20T14:37:53.263Z,2.35
2019-03-20T14:42:57.047Z,1.85
2019-03-20T14:48:00.837Z,2.00
2019-03-20T14:53:04.706Z,2.00
2019-03-20T14:58:08.366Z,1.72
2019-03-20T15:03:12.049Z,1.90
2019-03-20T15:08:15.728Z,2.12
2019-03-20T15:13:19.710Z,1.93
2019-03-20T15:18:23.706Z,2.22
2019-03-20T15:23:27.558Z,2.55
2019-03-20T15:28:31.249Z,2.00
2019-03-20T15:33:34.981Z,1.90
2019-03-20T15:38:38.748Z,2.00
2019-03-20T15:43:42.525Z,2.23
2019-03-20T15:48:48.737Z,2.47
2019-03-20T15:53:52.681Z,2.40
2019-03-20T15:58:56.708Z,1.90
2019-03-20T16:04:00.473Z,1.90
2019-03-20T16:09:07.857Z,2.57
2019-03-20T16:14:11.925Z,2.33
2019-03-20T16:19:15.817Z,3.00
2019-03-20T16:24:19.496Z,2.80
2019-03-20T16:29:25.726Z,2.30
2019-03-20T16:34:29.413Z,2.47
2019-03-20T16:39:33.114Z,2.47
2019-03-20T16:44:36.845Z,2.90
2019-03-20T16:49:41.051Z,2.63
2019-03-20T16:54:44.758Z,2.70
2019-03-20T16:59:48.546Z,2.90
2019-03-20T17:04:52.688Z,2.97
2019-03-20T17:09:56.359Z,2.77
2019-03-20T17:15:00.049Z,2.80
2019-03-20T17:20:04.219Z,3.07
2019-03-20T17:25:08.431Z,3.13
2019-03-20T17:30:15.158Z,3.23
2019-03-20T17:35:19.290Z,3.67
2019-03-20T17:40:24.089Z,3.37
2019-03-20T17:45:28.285Z,3.50
2019-03-20T17:50:32.317Z,3.70
2019-03-20T17:55:35.993Z,4.00
2019-03-20T18:00:42.031Z,3.60
2019-03-20T18:05:45.892Z,3.80
2019-03-20T18:10:49.585Z,8.00
2019-03-20T18:15:53.317Z,9.13
2019-03-20T18:20:57.021Z,7.17
2019-03-20T18:26:00.747Z,13.87
2019-03-20T18:31:04.480Z,17.70
2019-03-20T18:36:08.791Z,13.37
2019-03-20T18:41:13.886Z,17.87
2019-03-20T18:46:17.593Z,14.10
2019-03-20T18:51:21.893Z,8.83
2019-03-20T18:56:25.921Z,8.13
2019-03-20T19:01:29.618Z,8.50
2019-03-20T19:06:33.784Z,9.50
2019-03-20T19:11:37.674Z,9.17
2019-03-20T19:16:42.070Z,10.17
2019-03-20T19:21:46.094Z,10.00
2019-03-20T19:26:50.503Z,9.00
2019-03-20T19:31:55.776Z,8.27
2019-03-20T19:36:59.668Z,6.70
2019-03-20T19:42:03.354Z,7.63
2019-03-20T19:47:07.358Z,7.87
2019-03-20T19:52:11.101Z,8.00
2019-03-20T19:57:14.837Z,8.47
2019-03-20T20:02:18.589Z,7.77
2019-03-20T20:07:22.785Z,8.50
2019-03-20T20:12:31.097Z,9.97
2019-03-20T20:17:32.268Z,8.63
2019-03-20T20:22:36.008Z,8.67
2019-03-20T20:27:39.671Z,8.10
2019-03-20T20:32:46.764Z,9.83
2019-03-20T20:37:50.651Z,9.70
2019-03-20T20:42:54.473Z,9.00
2019-03-20T20:47:58.344Z,9.20
2019-03-20T20:53:02.451Z,8.67
2019-03-20T20:58:06.300Z,10.30
2019-03-20T21:03:10.381Z,8.07
2019-03-20T21:08:14.115Z,9.10
2019-03-20T21:13:17.820Z,7.37
2019-03-20T21:19:21.266Z,7.03
2019-03-20T21:24:28.027Z,7.00
2019-03-20T21:30:27.269Z,7.23
2019-03-20T21:36:29.806Z,7.40
2019-03-20T21:42:20.727Z,7.03
2019-03-20T21:47:32.793Z,6.40
2019-03-20T21:52:37.336Z,6.37
2019-03-20T21:58:11.769Z,6.43
2019-03-20T22:03:16.006Z,6.93
2019-03-20T22:08:20.339Z,7.13
2019-03-20T22:13:31.883Z,6.27
2019-03-20T22:19:20.470Z,7.00
2019-03-20T22:24:45.354Z,6.40
2019-03-20T22:29:49.977Z,6.13
2019-03-20T22:35:37.989Z,5.53
2019-03-20T22:41:18.162Z,5.80
2019-03-20T22:46:59.016Z,5.43
2019-03-20T22:52:37.791Z,5.03
2019-03-20T22:58:04.470Z,5.37
2019-03-20T23:03:13.609Z,5.20
2019-03-20T23:08:17.829Z,5.73
2019-03-20T23:13:22.130Z,5.00
2019-03-20T23:18:26.398Z,5.30
2019-03-20T23:23:31.765Z,5.43
2019-03-20T23:28:36.375Z,5.37
2019-03-20T23:33:40.702Z,5.30
2019-03-20T23:38:44.939Z,5.43
2019-03-20T23:43:53.220Z,5.30
2019-03-20T23:48:59.202Z,6.20
2019-03-20T23:54:03.592Z,5.70
2019-03-20T23:59:08.266Z,5.30
